sensor_id;sensor_type;location;lat;lon;timestamp;pressure;altitude;pressure_sealevel;temperature;humidity
64078;BME280;51039;49.696;10.808;2023-01-28T00:00:49;98972.91;;;0.40;88.18
64078;BME280;51039;49.696;10.808;2023-01-28T00:03:14;98971.16;;;0.41;88.18
64078;BME280;51039;49.696;10.808;2023-01-28T00:05:40;98967.59;;;0.42;89.51
64078;BME280;51039;49.696;10.808;2023-01-28T00:08:05;98967.69;;;0.40;89.08
64078;BME280;51039;49.696;10.808;2023-01-28T00:10:31;98963.06;;;0.44;88.52
64078;BME280;51039;49.696;10.808;2023-01-28T00:12:56;98968.25;;;0.55;89.41
64078;BME280;51039;49.696;10.808;2023-01-28T00:15:21;98969.19;;;0.54;88.76
64078;BME280;51039;49.696;10.808;2023-01-28T00:17:49;98966.50;;;0.44;89.10
64078;BME280;51039;49.696;10.808;2023-01-28T00:20:14;98963.34;;;0.41;89.77
64078;BME280;51039;49.696;10.808;2023-01-28T00:22:40;98961.66;;;0.39;90.56
64078;BME280;51039;49.696;10.808;2023-01-28T00:25:05;98955.84;;;0.47;91.24
64078;BME280;51039;49.696;10.808;2023-01-28T00:27:31;98963.06;;;0.44;91.16
64078;BME280;51039;49.696;10.808;2023-01-28T00:29:56;98955.25;;;0.44;91.42
64078;BME280;51039;49.696;10.808;2023-01-28T00:32:21;98961.47;;;0.31;91.88
64078;BME280;51039;49.696;10.808;2023-01-28T00:34:47;98959.34;;;0.25;92.33
64078;BME280;51039;49.696;10.808;2023-01-28T00:37:14;98965.69;;;0.32;92.17
64078;BME280;51039;49.696;10.808;2023-01-28T00:39:39;98961.69;;;0.28;92.95
64078;BME280;51039;49.696;10.808;2023-01-28T00:42:04;98963.38;;;0.29;93.06
64078;BME280;51039;49.696;10.808;2023-01-28T00:44:30;98965.69;;;0.32;92.15
64078;BME280;51039;49.696;10.808;2023-01-28T00:46:55;98966.09;;;0.28;92.14
64078;BME280;51039;49.696;10.808;2023-01-28T00:49:20;98965.25;;;0.27;92.45
64078;BME280;51039;49.696;10.808;2023-01-28T00:51:46;98967.88;;;0.27;92.54
64078;BME280;51039;49.696;10.808;2023-01-28T00:54:12;98962.50;;;0.29;92.25
64078;BME280;51039;49.696;10.808;2023-01-28T00:56:38;98965.59;;;0.34;91.94
64078;BME280;51039;49.696;10.808;2023-01-28T00:59:03;98963.56;;;0.37;91.35
64078;BME280;51039;49.696;10.808;2023-01-28T01:01:28;98970.19;;;0.42;91.29
64078;BME280;51039;49.696;10.808;2023-01-28T01:03:54;98959.53;;;0.45;91.49
64078;BME280;51039;49.696;10.808;2023-01-28T01:06:26;98969.38;;;0.41;91.07
64078;BME280;51039;49.696;10.808;2023-01-28T01:08:54;98964.28;;;0.39;91.35
64078;BME280;51039;49.696;10.808;2023-01-28T01:11:19;98963.56;;;0.37;91.12
64078;BME280;51039;49.696;10.808;2023-01-28T01:13:51;98971.16;;;0.41;91.52
64078;BME280;51039;49.696;10.808;2023-01-28T01:16:21;98967.47;;;0.43;90.84
64078;BME280;51039;49.696;10.808;2023-01-28T01:18:49;98966.38;;;0.46;90.65
64078;BME280;51039;49.696;10.808;2023-01-28T01:21:16;98970.06;;;0.43;90.62
64078;BME280;51039;49.696;10.808;2023-01-28T01:23:43;98972.78;;;0.42;91.37
64078;BME280;51039;49.696;10.808;2023-01-28T01:26:09;98970.06;;;0.43;91.01
64078;BME280;51039;49.696;10.808;2023-01-28T01:28:35;98971.00;;;0.42;90.61
64078;BME280;51039;49.696;10.808;2023-01-28T01:31:02;98972.91;;;0.40;91.11
64078;BME280;51039;49.696;10.808;2023-01-28T01:33:47;98978.00;;;0.42;90.55
64078;BME280;51039;49.696;10.808;2023-01-28T01:36:15;98977.78;;;0.45;90.27
64078;BME280;51039;49.696;10.808;2023-01-28T01:38:43;98984.28;;;0.50;89.97
64078;BME280;51039;49.696;10.808;2023-01-28T01:41:14;98985.09;;;0.51;89.83
64078;BME280;51039;49.696;10.808;2023-01-28T01:43:51;98989.84;;;0.46;89.98
64078;BME280;51039;49.696;10.808;2023-01-28T01:46:21;98988.53;;;0.40;90.01
64078;BME280;51039;49.696;10.808;2023-01-28T01:48:53;98988.94;;;0.35;90.52
64078;BME280;51039;49.696;10.808;2023-01-28T01:51:21;98994.84;;;0.37;90.69
64078;BME280;51039;49.696;10.808;2023-01-28T01:53:52;98992.94;;;0.39;90.45
64078;BME280;51039;49.696;10.808;2023-01-28T01:56:23;98997.06;;;0.42;90.35
64078;BME280;51039;49.696;10.808;2023-01-28T01:58:56;98998.16;;;0.39;90.52
64078;BME280;51039;49.696;10.808;2023-01-28T02:01:23;98992.22;;;0.37;90.57
64078;BME280;51039;49.696;10.808;2023-01-28T02:04:00;98993.16;;;0.36;89.98
64078;BME280;51039;49.696;10.808;2023-01-28T02:06:34;98997.56;;;0.36;90.05
64078;BME280;51039;49.696;10.808;2023-01-28T02:09:01;98993.16;;;0.36;90.13
64078;BME280;51039;49.696;10.808;2023-01-28T02:11:28;98990.56;;;0.36;90.07
64078;BME280;51039;49.696;10.808;2023-01-28T02:13:57;98993.06;;;0.38;89.99
64078;BME280;51039;49.696;10.808;2023-01-28T02:16:27;98989.63;;;0.37;89.73
64078;BME280;51039;49.696;10.808;2023-01-28T02:18:54;98989.63;;;0.37;89.76
64078;BME280;51039;49.696;10.808;2023-01-28T02:21:28;98986.06;;;0.38;89.64
64078;BME280;51039;49.696;10.808;2023-01-28T02:29:13;99000.53;;;0.43;89.08
64078;BME280;51039;49.696;10.808;2023-01-28T02:31:51;98997.22;;;0.41;88.82
64078;BME280;51039;49.696;10.808;2023-01-28T02:34:19;98995.53;;;0.39;88.99
64078;BME280;51039;49.696;10.808;2023-01-28T02:36:58;98991.28;;;0.38;88.86
64078;BME280;51039;49.696;10.808;2023-01-28T02:39:40;98992.13;;;0.39;88.35
64078;BME280;51039;49.696;10.808;2023-01-28T02:42:22;99003.59;;;0.36;88.46
64078;BME280;51039;49.696;10.808;2023-01-28T02:44:51;99000.88;;;0.38;88.56
64078;BME280;51039;49.696;10.808;2023-01-28T02:47:16;99008.81;;;0.36;88.40
64078;BME280;51039;49.696;10.808;2023-01-28T02:50:04;99002.66;;;0.37;88.07
64078;BME280;51039;49.696;10.808;2023-01-28T02:52:44;99003.59;;;0.36;88.22
64078;BME280;51039;49.696;10.808;2023-01-28T02:58:25;99006.09;;;0.38;88.48
64078;BME280;51039;49.696;10.808;2023-01-28T03:00:55;99012.38;;;0.35;88.75
64078;BME280;51039;49.696;10.808;2023-01-28T03:06:21;99010.72;;;0.34;88.86
64078;BME280;51039;49.696;10.808;2023-01-28T03:08:54;99007.50;;;0.31;89.06
64078;BME280;51039;49.696;10.808;2023-01-28T03:11:43;99010.00;;;0.32;89.30
64078;BME280;51039;49.696;10.808;2023-01-28T03:14:31;99008.47;;;0.30;89.03
64078;BME280;51039;49.696;10.808;2023-01-28T03:17:18;99006.00;;;0.28;89.07
64078;BME280;51039;49.696;10.808;2023-01-28T03:20:09;99013.09;;;0.26;89.62
64078;BME280;51039;49.696;10.808;2023-01-28T03:22:53;99011.69;;;0.22;90.00
64078;BME280;51039;49.696;10.808;2023-01-28T03:25:43;99023.31;;;0.18;90.51
64078;BME280;51039;49.696;10.808;2023-01-28T03:28:31;99022.34;;;0.19;90.68
64078;BME280;51039;49.696;10.808;2023-01-28T03:31:18;99030.28;;;0.17;91.30
64078;BME280;51039;49.696;10.808;2023-01-28T03:34:05;99027.09;;;0.14;91.67
64078;BME280;51039;49.696;10.808;2023-01-28T03:36:52;99030.75;;;0.11;91.91
64078;BME280;51039;49.696;10.808;2023-01-28T03:39:23;99027.31;;;0.11;92.00
64078;BME280;51039;49.696;10.808;2023-01-28T03:42:10;99034.31;;;0.10;92.34
64078;BME280;51039;49.696;10.808;2023-01-28T03:44:38;99028.28;;;0.10;92.39
64078;BME280;51039;49.696;10.808;2023-01-28T03:47:20;99037.03;;;0.09;92.64
64078;BME280;51039;49.696;10.808;2023-01-28T03:49:48;99031.94;;;0.07;92.61
64078;BME280;51039;49.696;10.808;2023-01-28T03:52:19;99037.03;;;0.09;92.42
64078;BME280;51039;49.696;10.808;2023-01-28T03:54:46;99037.03;;;0.09;92.54
64078;BME280;51039;49.696;10.808;2023-01-28T03:57:15;99049.25;;;0.08;92.27
64078;BME280;51039;49.696;10.808;2023-01-28T03:59:42;99051.75;;;0.10;92.26
64078;BME280;51039;49.696;10.808;2023-01-28T04:02:08;99045.56;;;0.11;92.35
64078;BME280;51039;49.696;10.808;2023-01-28T04:04:35;99048.06;;;0.12;92.52
64078;BME280;51039;49.696;10.808;2023-01-28T04:07:04;99050.66;;;0.12;92.32
64078;BME280;51039;49.696;10.808;2023-01-28T04:09:32;99053.97;;;0.14;92.20
64078;BME280;51039;49.696;10.808;2023-01-28T04:11:58;99059.28;;;0.13;92.34
64078;BME280;51039;49.696;10.808;2023-01-28T04:14:24;99060.97;;;0.14;92.49
64078;BME280;51039;49.696;10.808;2023-01-28T04:16:49;99066.88;;;0.16;92.47
64078;BME280;51039;49.696;10.808;2023-01-28T04:19:16;99054.91;;;0.13;92.48
64078;BME280;51039;49.696;10.808;2023-01-28T04:21:41;99060.13;;;0.13;92.43
64078;BME280;51039;49.696;10.808;2023-01-28T04:24:06;99065.22;;;0.15;92.60
64078;BME280;51039;49.696;10.808;2023-01-28T04:26:32;99061.91;;;0.13;92.16
64078;BME280;51039;49.696;10.808;2023-01-28T04:28:57;99060.97;;;0.14;91.94
64078;BME280;51039;49.696;10.808;2023-01-28T04:31:22;99060.25;;;0.12;92.19
64078;BME280;51039;49.696;10.808;2023-01-28T04:33:48;99064.41;;;0.14;92.38
64078;BME280;51039;49.696;10.808;2023-01-28T04:36:14;99064.50;;;0.13;92.23
64078;BME280;51039;49.696;10.808;2023-01-28T04:38:39;99057.50;;;0.13;91.99
64078;BME280;51039;49.696;10.808;2023-01-28T04:41:05;99062.88;;;0.12;92.31
64078;BME280;51039;49.696;10.808;2023-01-28T04:43:30;99064.50;;;0.13;92.16
64078;BME280;51039;49.696;10.808;2023-01-28T04:45:55;99062.59;;;0.15;92.21
64078;BME280;51039;49.696;10.808;2023-01-28T04:48:20;99063.31;;;0.17;92.30
64078;BME280;51039;49.696;10.808;2023-01-28T04:50:46;99057.88;;;0.20;91.95
64078;BME280;51039;49.696;10.808;2023-01-28T04:53:11;99068.41;;;0.18;92.12
64078;BME280;51039;49.696;10.808;2023-01-28T04:55:37;99070.09;;;0.19;92.35
64078;BME280;51039;49.696;10.808;2023-01-28T04:58:02;99068.31;;;0.20;92.66
64078;BME280;51039;49.696;10.808;2023-01-28T05:00:28;99073.72;;;0.17;92.46
64078;BME280;51039;49.696;10.808;2023-01-28T05:02:53;99069.72;;;0.13;92.41
64078;BME280;51039;49.696;10.808;2023-01-28T05:05:19;99072.81;;;0.18;93.00
64078;BME280;51039;49.696;10.808;2023-01-28T05:07:49;99071.97;;;0.17;92.74
64078;BME280;51039;49.696;10.808;2023-01-28T05:10:15;99077.91;;;0.19;93.13
64078;BME280;51039;49.696;10.808;2023-01-28T05:12:42;99077.19;;;0.17;92.54
64078;BME280;51039;49.696;10.808;2023-01-28T05:15:08;99077.19;;;0.17;93.02
64078;BME280;51039;49.696;10.808;2023-01-28T05:17:34;99075.28;;;0.19;92.97
64078;BME280;51039;49.696;10.808;2023-01-28T05:19:59;99066.41;;;0.22;93.08
64078;BME280;51039;49.696;10.808;2023-01-28T05:22:24;99076.13;;;0.20;92.81
64078;BME280;51039;49.696;10.808;2023-01-28T05:24:50;99076.34;;;0.17;93.46
64078;BME280;51039;49.696;10.808;2023-01-28T05:27:15;99080.63;;;0.18;93.77
64078;BME280;51039;49.696;10.808;2023-01-28T05:29:40;99075.75;;;0.25;93.72
64078;BME280;51039;49.696;10.808;2023-01-28T05:32:06;99082.03;;;0.22;93.64
64078;BME280;51039;49.696;10.808;2023-01-28T05:34:31;99086.75;;;0.17;94.01
64078;BME280;51039;49.696;10.808;2023-01-28T05:36:56;99085.22;;;0.14;95.00
64078;BME280;51039;49.696;10.808;2023-01-28T05:39:22;99081.31;;;0.20;95.11
64078;BME280;51039;49.696;10.808;2023-01-28T05:41:47;99090.56;;;0.13;95.17
64078;BME280;51039;49.696;10.808;2023-01-28T05:44:12;99091.75;;;0.09;95.15
64078;BME280;51039;49.696;10.808;2023-01-28T05:46:37;99087.72;;;0.05;95.20
64078;BME280;51039;49.696;10.808;2023-01-28T05:49:09;99093.16;;;0.02;95.73
64078;BME280;51039;49.696;10.808;2023-01-28T05:51:37;99079.91;;;0.05;95.66
64078;BME280;51039;49.696;10.808;2023-01-28T05:54:04;99083.44;;;0.04;96.44
64078;BME280;51039;49.696;10.808;2023-01-28T05:56:30;99090.56;;;0.13;95.73
64078;BME280;51039;49.696;10.808;2023-01-28T05:58:55;99085.00;;;0.17;95.58
64078;BME280;51039;49.696;10.808;2023-01-28T06:01:21;99094.94;;;0.12;95.88
64078;BME280;51039;49.696;10.808;2023-01-28T06:03:46;99096.72;;;0.12;95.91
64078;BME280;51039;49.696;10.808;2023-01-28T06:06:11;99100.25;;;0.11;95.30
64078;BME280;51039;49.696;10.808;2023-01-28T06:08:36;99096.03;;;0.10;95.94
64078;BME280;51039;49.696;10.808;2023-01-28T06:11:02;99093.03;;;0.14;96.14
64078;BME280;51039;49.696;10.808;2023-01-28T06:13:27;99094.34;;;0.09;96.94
64078;BME280;51039;49.696;10.808;2023-01-28T06:15:52;99105.84;;;0.06;96.33
64078;BME280;51039;49.696;10.808;2023-01-28T06:18:18;99103.84;;;0.10;96.50
64078;BME280;51039;49.696;10.808;2023-01-28T06:20:43;99106.66;;;0.18;96.28
64078;BME280;51039;49.696;10.808;2023-01-28T06:23:08;99116.38;;;0.16;96.49
64078;BME280;51039;49.696;10.808;2023-01-28T06:25:34;99114.81;;;0.13;96.46
64078;BME280;51039;49.696;10.808;2023-01-28T06:27:59;99117.44;;;0.13;96.61
64078;BME280;51039;49.696;10.808;2023-01-28T06:30:24;99122.63;;;0.13;96.74
64078;BME280;51039;49.696;10.808;2023-01-28T06:32:53;99117.81;;;0.20;96.94
64078;BME280;51039;49.696;10.808;2023-01-28T06:35:19;99123.00;;;0.20;96.86
64078;BME280;51039;49.696;10.808;2023-01-28T06:37:45;99127.03;;;0.24;96.42
64078;BME280;51039;49.696;10.808;2023-01-28T06:40:11;99128.94;;;0.22;96.37
64078;BME280;51039;49.696;10.808;2023-01-28T06:42:36;99136.16;;;0.18;96.68
64078;BME280;51039;49.696;10.808;2023-01-28T06:45:01;99135.31;;;0.18;96.73
64078;BME280;51039;49.696;10.808;2023-01-28T06:47:27;99142.31;;;0.17;97.09
64078;BME280;51039;49.696;10.808;2023-01-28T06:49:52;99139.72;;;0.17;96.34
64078;BME280;51039;49.696;10.808;2023-01-28T06:52:17;99147.53;;;0.17;96.42
64078;BME280;51039;49.696;10.808;2023-01-28T06:54:42;99146.69;;;0.17;95.40
64078;BME280;51039;49.696;10.808;2023-01-28T06:57:08;99152.59;;;0.19;94.51
64078;BME280;51039;49.696;10.808;2023-01-28T06:59:33;99148.34;;;0.18;93.80
64078;BME280;51039;49.696;10.808;2023-01-28T07:01:58;99152.00;;;0.15;93.72
64078;BME280;51039;49.696;10.808;2023-01-28T07:04:24;99155.34;;;0.17;93.15
64078;BME280;51039;49.696;10.808;2023-01-28T07:06:49;99153.47;;;0.19;92.47
64078;BME280;51039;49.696;10.808;2023-01-28T07:09:14;99157.00;;;0.18;93.13
64078;BME280;51039;49.696;10.808;2023-01-28T07:11:39;99156.63;;;0.23;93.03
64078;BME280;51039;49.696;10.808;2023-01-28T07:14:05;99164.69;;;0.20;92.08
64078;BME280;51039;49.696;10.808;2023-01-28T07:16:30;99166.13;;;0.24;91.73
64078;BME280;51039;49.696;10.808;2023-01-28T07:18:55;99162.59;;;0.25;91.14
64078;BME280;51039;49.696;10.808;2023-01-28T07:21:21;99160.91;;;0.24;91.17
64078;BME280;51039;49.696;10.808;2023-01-28T07:23:46;99167.78;;;0.25;90.96
64078;BME280;51039;49.696;10.808;2023-01-28T07:26:11;99169.44;;;0.26;90.19
64078;BME280;51039;49.696;10.808;2023-01-28T07:28:36;99175.97;;;0.32;90.53
64078;BME280;51039;49.696;10.808;2023-01-28T07:31:02;99180.47;;;0.30;89.43
64078;BME280;51039;49.696;10.808;2023-01-28T07:33:27;99177.03;;;0.29;89.38
64078;BME280;51039;49.696;10.808;2023-01-28T07:35:52;99168.25;;;0.30;88.84
64078;BME280;51039;49.696;10.808;2023-01-28T07:38:18;99170.75;;;0.32;88.92
64078;BME280;51039;49.696;10.808;2023-01-28T07:40:43;99172.53;;;0.31;88.43
64078;BME280;51039;49.696;10.808;2023-01-28T07:43:09;99169.22;;;0.29;88.58
64078;BME280;51039;49.696;10.808;2023-01-28T07:45:35;99171.69;;;0.31;88.43
64078;BME280;51039;49.696;10.808;2023-01-28T07:48:01;99168.97;;;0.32;88.09
64078;BME280;51039;49.696;10.808;2023-01-28T07:50:30;99179.97;;;0.36;88.08
64078;BME280;51039;49.696;10.808;2023-01-28T07:52:56;99175.03;;;0.33;88.38
64078;BME280;51039;49.696;10.808;2023-01-28T07:55:22;99180.81;;;0.36;87.99
64078;BME280;51039;49.696;10.808;2023-01-28T07:57:52;99186.16;;;0.35;88.05
64078;BME280;51039;49.696;10.808;2023-01-28T08:00:19;99177.25;;;0.37;87.63
64078;BME280;51039;49.696;10.808;2023-01-28T08:02:46;99185.09;;;0.37;87.31
64078;BME280;51039;49.696;10.808;2023-01-28T08:05:16;99183.31;;;0.38;87.08
64078;BME280;51039;49.696;10.808;2023-01-28T08:07:43;99193.25;;;0.44;86.82
64078;BME280;51039;49.696;10.808;2023-01-28T08:10:10;99186.72;;;0.50;86.51
64078;BME280;51039;49.696;10.808;2023-01-28T08:12:36;99185.09;;;0.49;86.75
64078;BME280;51039;49.696;10.808;2023-01-28T08:15:02;99187.34;;;0.53;86.12
64078;BME280;51039;49.696;10.808;2023-01-28T08:17:29;99192.91;;;0.60;86.45
64078;BME280;51039;49.696;10.808;2023-01-28T08:19:54;99195.53;;;0.60;85.96
64078;BME280;51039;49.696;10.808;2023-01-28T08:22:23;99196.72;;;0.56;84.97
64078;BME280;51039;49.696;10.808;2023-01-28T08:24:49;99196.25;;;0.62;84.73
64078;BME280;51039;49.696;10.808;2023-01-28T08:27:14;99202.63;;;0.58;84.65
64078;BME280;51039;49.696;10.808;2023-01-28T08:29:40;99197.28;;;0.71;84.02
64078;BME280;51039;49.696;10.808;2023-01-28T08:32:05;99202.03;;;0.66;83.81
64078;BME280;51039;49.696;10.808;2023-01-28T08:34:30;99195.63;;;0.70;83.78
64078;BME280;51039;49.696;10.808;2023-01-28T08:36:55;99201.69;;;0.82;83.43
64078;BME280;51039;49.696;10.808;2023-01-28T08:39:21;99195.97;;;0.88;83.44
64078;BME280;51039;49.696;10.808;2023-01-28T08:41:46;99202.59;;;1.03;83.08
64078;BME280;51039;49.696;10.808;2023-01-28T08:44:11;99199.75;;;1.06;82.07
64078;BME280;51039;49.696;10.808;2023-01-28T08:46:36;99208.00;;;1.23;82.12
64078;BME280;51039;49.696;10.808;2023-01-28T08:49:02;99213.56;;;1.41;81.70
64078;BME280;51039;49.696;10.808;2023-01-28T08:51:27;99202.09;;;1.21;81.96
64078;BME280;51039;49.696;10.808;2023-01-28T08:53:52;99201.16;;;1.22;80.83
64078;BME280;51039;49.696;10.808;2023-01-28T08:56:17;99207.91;;;1.56;82.00
64078;BME280;51039;49.696;10.808;2023-01-28T08:58:43;99207.66;;;1.60;80.02
64078;BME280;51039;49.696;10.808;2023-01-28T09:01:09;99203.59;;;1.67;82.13
64078;BME280;51039;49.696;10.808;2023-01-28T09:03:34;99210.53;;;1.56;80.31
64078;BME280;51039;49.696;10.808;2023-01-28T09:06:00;99218.44;;;1.66;80.43
64078;BME280;51039;49.696;10.808;2023-01-28T09:08:27;99216.63;;;1.78;79.36
64078;BME280;51039;49.696;10.808;2023-01-28T09:10:59;99218.53;;;1.76;78.16
64078;BME280;51039;49.696;10.808;2023-01-28T09:13:24;99219.09;;;1.80;77.87
64078;BME280;51039;49.696;10.808;2023-01-28T09:15:50;99222.16;;;1.64;77.86
64078;BME280;51039;49.696;10.808;2023-01-28T09:18:16;99232.78;;;1.72;78.12
64078;BME280;51039;49.696;10.808;2023-01-28T09:20:42;99226.94;;;1.47;79.11
64078;BME280;51039;49.696;10.808;2023-01-28T09:23:07;99229.59;;;1.68;79.33
64078;BME280;51039;49.696;10.808;2023-01-28T09:25:33;99230.63;;;1.77;78.74
64078;BME280;51039;49.696;10.808;2023-01-28T09:28:00;99238.66;;;2.18;76.40
64078;BME280;51039;49.696;10.808;2023-01-28T09:30:25;99239.75;;;2.04;76.89
64078;BME280;51039;49.696;10.808;2023-01-28T09:32:51;99238.28;;;1.57;76.82
64078;BME280;51039;49.696;10.808;2023-01-28T09:35:18;99244.88;;;1.73;77.14
64078;BME280;51039;49.696;10.808;2023-01-28T09:37:44;99245.59;;;1.75;76.50
64078;BME280;51039;49.696;10.808;2023-01-28T09:45:41;99249.97;;;1.31;76.96
64078;BME280;51039;49.696;10.808;2023-01-28T09:48:15;99257.56;;;1.45;76.76
64078;BME280;51039;49.696;10.808;2023-01-28T09:50:44;99248.09;;;1.33;77.13
64078;BME280;51039;49.696;10.808;2023-01-28T09:56:00;99246.28;;;1.56;77.15
64078;BME280;51039;49.696;10.808;2023-01-28T09:58:29;99248.38;;;1.62;76.53
64078;BME280;51039;49.696;10.808;2023-01-28T10:01:04;99246.88;;;1.48;76.78
64078;BME280;51039;49.696;10.808;2023-01-28T10:12:12;99259.25;;;1.35;77.08
64078;BME280;51039;49.696;10.808;2023-01-28T10:17:47;99251.66;;;1.32;76.67
64078;BME280;51039;49.696;10.808;2023-01-28T10:20:37;99247.97;;;1.23;76.82
64078;BME280;51039;49.696;10.808;2023-01-28T10:23:13;99253.81;;;1.15;77.75
64078;BME280;51039;49.696;10.808;2023-01-28T10:25:44;99249.31;;;1.17;77.90
64078;BME280;51039;49.696;10.808;2023-01-28T10:28:24;99248.59;;;1.15;77.32
64078;BME280;51039;49.696;10.808;2023-01-28T10:30:52;99245.63;;;1.20;76.51
64078;BME280;51039;49.696;10.808;2023-01-28T10:35:53;99245.75;;;1.18;76.45
64078;BME280;51039;49.696;10.808;2023-01-28T10:38:20;99250.56;;;1.34;76.61
64078;BME280;51039;49.696;10.808;2023-01-28T10:40:47;99249.97;;;1.31;76.92
64078;BME280;51039;49.696;10.808;2023-01-28T10:43:18;99249.66;;;1.24;75.78
64078;BME280;51039;49.696;10.808;2023-01-28T10:48:34;99249.66;;;1.24;76.08
64078;BME280;51039;49.696;10.808;2023-01-28T10:51:03;99250.94;;;1.41;76.48
64078;BME280;51039;49.696;10.808;2023-01-28T10:53:40;99256.84;;;1.54;75.86
64078;BME280;51039;49.696;10.808;2023-01-28T10:56:10;99253.63;;;1.51;75.28
64078;BME280;51039;49.696;10.808;2023-01-28T10:58:49;99253.72;;;1.61;75.37
64078;BME280;51039;49.696;10.808;2023-01-28T11:01:22;99258.13;;;1.60;75.54
64078;BME280;51039;49.696;10.808;2023-01-28T11:03:52;99263.25;;;1.50;74.96
64078;BME280;51039;49.696;10.808;2023-01-28T11:06:22;99262.06;;;1.43;75.73
64078;BME280;51039;49.696;10.808;2023-01-28T11:08:50;99257.78;;;1.42;75.43
64078;BME280;51039;49.696;10.808;2023-01-28T11:11:15;99256.66;;;1.35;75.10
64078;BME280;51039;49.696;10.808;2023-01-28T11:13:50;99263.28;;;1.39;75.20
64078;BME280;51039;49.696;10.808;2023-01-28T11:16:17;99260.09;;;1.24;74.95
64078;BME280;51039;49.696;10.808;2023-01-28T11:18:51;99261.63;;;1.27;75.33
64078;BME280;51039;49.696;10.808;2023-01-28T11:21:20;99262.94;;;1.21;75.13
64078;BME280;51039;49.696;10.808;2023-01-28T11:26:47;99262.81;;;1.23;75.50
64078;BME280;51039;49.696;10.808;2023-01-28T11:31:47;99261.16;;;1.33;75.44
64078;BME280;51039;49.696;10.808;2023-01-28T11:34:17;99258.28;;;1.36;75.16
64078;BME280;51039;49.696;10.808;2023-01-28T11:36:50;99266.38;;;1.33;75.04
64078;BME280;51039;49.696;10.808;2023-01-28T11:41:49;99258.75;;;1.52;73.49
64078;BME280;51039;49.696;10.808;2023-01-28T11:44:20;99263.47;;;1.59;72.18
64078;BME280;51039;49.696;10.808;2023-01-28T11:52:39;99259.94;;;1.81;73.86
64078;BME280;51039;49.696;10.808;2023-01-28T11:55:36;99266.72;;;1.83;74.51
64078;BME280;51039;49.696;10.808;2023-01-28T11:58:05;99262.44;;;1.82;73.78
64078;BME280;51039;49.696;10.808;2023-01-28T12:00:57;99257.66;;;1.87;74.06
64078;BME280;51039;49.696;10.808;2023-01-28T12:08:41;99248.19;;;1.75;73.47
64078;BME280;51039;49.696;10.808;2023-01-28T12:14:42;99240.38;;;1.75;73.32
64078;BME280;51039;49.696;10.808;2023-01-28T12:34:18;99251.75;;;1.42;72.57
64078;BME280;51039;49.696;10.808;2023-01-28T12:42:37;99245.69;;;1.52;72.03
64078;BME280;51039;49.696;10.808;2023-01-28T12:47:41;99234.69;;;1.37;72.27
64078;BME280;51039;49.696;10.808;2023-01-28T12:50:20;99231.25;;;1.26;72.24
64078;BME280;51039;49.696;10.808;2023-01-28T12:52:51;99233.34;;;1.54;71.69
64078;BME280;51039;49.696;10.808;2023-01-28T12:55:34;99244.38;;;1.47;71.58
64078;BME280;51039;49.696;10.808;2023-01-28T12:58:20;99245.19;;;1.59;71.98
64078;BME280;51039;49.696;10.808;2023-01-28T13:00:53;99241.66;;;1.81;71.25
64078;BME280;51039;49.696;10.808;2023-01-28T13:03:33;99242.66;;;1.68;70.83
64078;BME280;51039;49.696;10.808;2023-01-28T13:06:06;99244.47;;;1.56;71.51
64078;BME280;51039;49.696;10.808;2023-01-28T13:08:37;99249.84;;;1.44;71.50
64078;BME280;51039;49.696;10.808;2023-01-28T13:11:03;99252.34;;;1.45;71.50
64078;BME280;51039;49.696;10.808;2023-01-28T13:16:01;99242.91;;;1.10;71.59
64078;BME280;51039;49.696;10.808;2023-01-28T13:20:59;99260.00;;;0.92;72.81
64078;BME280;51039;49.696;10.808;2023-01-28T13:23:35;99256.19;;;0.85;73.26
64078;BME280;51039;49.696;10.808;2023-01-28T13:28:44;99257.50;;;1.13;73.01
64078;BME280;51039;49.696;10.808;2023-01-28T13:31:14;99268.63;;;0.92;72.78
64078;BME280;51039;49.696;10.808;2023-01-28T13:34:02;99264.59;;;0.54;73.22
64078;BME280;51039;49.696;10.808;2023-01-28T13:36:29;99262.94;;;0.65;73.80
64078;BME280;51039;49.696;10.808;2023-01-28T13:41:39;99259.84;;;0.59;73.65
64078;BME280;51039;49.696;10.808;2023-01-28T13:44:19;99268.88;;;0.67;72.92
64078;BME280;51039;49.696;10.808;2023-01-28T13:54:37;99280.13;;;0.45;73.18
64078;BME280;51039;49.696;10.808;2023-01-28T13:57:26;99281.28;;;0.41;73.54
64078;BME280;51039;49.696;10.808;2023-01-28T14:08:23;99300.53;;;0.62;73.36
64078;BME280;51039;49.696;10.808;2023-01-28T14:11:13;99295.03;;;0.43;72.67
64078;BME280;51039;49.696;10.808;2023-01-28T14:16:40;99305.59;;;0.17;72.80
64078;BME280;51039;49.696;10.808;2023-01-28T14:19:16;99307.59;;;0.13;73.07
64078;BME280;51039;49.696;10.808;2023-01-28T14:21:47;99310.09;;;0.15;73.01
64078;BME280;51039;49.696;10.808;2023-01-28T14:24:15;99307.94;;;0.09;72.83
64078;BME280;51039;49.696;10.808;2023-01-28T14:26:47;99319.81;;;0.13;72.66
64078;BME280;51039;49.696;10.808;2023-01-28T14:32:18;99325.53;;;-0.06;72.94
64078;BME280;51039;49.696;10.808;2023-01-28T14:34:48;99326.63;;;0.03;72.37
64078;BME280;51039;49.696;10.808;2023-01-28T14:37:15;99315.06;;;0.07;71.45
64078;BME280;51039;49.696;10.808;2023-01-28T14:39:45;99322.34;;;0.02;72.27
64078;BME280;51039;49.696;10.808;2023-01-28T14:42:19;99325.69;;;0.04;72.44
64078;BME280;51039;49.696;10.808;2023-01-28T14:44:49;99342.41;;;-0.12;71.68
64078;BME280;51039;49.696;10.808;2023-01-28T14:55:47;99324.56;;;-0.29;71.18
64078;BME280;51039;49.696;10.808;2023-01-28T14:58:21;99331.66;;;-0.31;72.08
64078;BME280;51039;49.696;10.808;2023-01-28T15:00:55;99332.94;;;-0.37;71.80
64078;BME280;51039;49.696;10.808;2023-01-28T15:03:26;99340.44;;;-0.32;71.88
64078;BME280;51039;49.696;10.808;2023-01-28T15:06:04;99331.19;;;-0.36;71.70
64078;BME280;51039;49.696;10.808;2023-01-28T15:08:36;99343.88;;;-0.45;72.22
64078;BME280;51039;49.696;10.808;2023-01-28T15:11:01;99352.38;;;-0.30;71.13
64078;BME280;51039;49.696;10.808;2023-01-28T15:13:27;99346.78;;;-0.36;71.25
64078;BME280;51039;49.696;10.808;2023-01-28T15:15:56;99347.28;;;-0.31;69.82